sensor_id;sensor_type;location;lat;lon;timestamp;temperature;humidity
61374;DHT22;47242;48.158;-1.586;2022-07-29T00:00:00;21.90;57.10
61374;DHT22;47242;48.158;-1.586;2022-07-29T00:02:27;21.80;56.70
61374;DHT22;47242;48.158;-1.586;2022-07-29T00:04:52;21.80;56.60
61374;DHT22;47242;48.158;-1.586;2022-07-29T00:07:18;21.80;57.80
61374;DHT22;47242;48.158;-1.586;2022-07-29T00:09:44;21.70;57.50
61374;DHT22;47242;48.158;-1.586;2022-07-29T00:12:10;21.70;57.20
61374;DHT22;47242;48.158;-1.586;2022-07-29T00:14:35;21.70;57.00
61374;DHT22;47242;48.158;-1.586;2022-07-29T00:17:01;21.70;57.10
61374;DHT22;47242;48.158;-1.586;2022-07-29T00:19:27;21.70;57.50
61374;DHT22;47242;48.158;-1.586;2022-07-29T00:21:55;21.70;57.30
61374;DHT22;47242;48.158;-1.586;2022-07-29T00:24:23;21.60;57.50
61374;DHT22;47242;48.158;-1.586;2022-07-29T00:26:49;21.70;57.50
61374;DHT22;47242;48.158;-1.586;2022-07-29T00:29:14;21.70;57.30
61374;DHT22;47242;48.158;-1.586;2022-07-29T00:31:40;21.60;56.70
61374;DHT22;47242;48.158;-1.586;2022-07-29T00:34:05;21.70;57.50
61374;DHT22;47242;48.158;-1.586;2022-07-29T00:36:51;21.70;57.10
61374;DHT22;47242;48.158;-1.586;2022-07-29T00:39:17;21.60;57.10
61374;DHT22;47242;48.158;-1.586;2022-07-29T00:41:42;21.70;56.80
61374;DHT22;47242;48.158;-1.586;2022-07-29T00:44:08;21.70;56.80
61374;DHT22;47242;48.158;-1.586;2022-07-29T00:46:33;21.60;56.90
61374;DHT22;47242;48.158;-1.586;2022-07-29T00:48:59;21.60;56.80
61374;DHT22;47242;48.158;-1.586;2022-07-29T00:51:26;21.50;56.70
61374;DHT22;47242;48.158;-1.586;2022-07-29T00:53:53;21.50;56.90
61374;DHT22;47242;48.158;-1.586;2022-07-29T00:56:21;21.50;56.60
61374;DHT22;47242;48.158;-1.586;2022-07-29T00:58:48;21.50;56.20
61374;DHT22;47242;48.158;-1.586;2022-07-29T01:01:15;21.50;56.30
61374;DHT22;47242;48.158;-1.586;2022-07-29T01:03:41;21.60;56.10
61374;DHT22;47242;48.158;-1.586;2022-07-29T01:06:07;21.50;56.20
61374;DHT22;47242;48.158;-1.586;2022-07-29T01:08:32;21.50;55.90
61374;DHT22;47242;48.158;-1.586;2022-07-29T01:10:59;21.50;56.20
61374;DHT22;47242;48.158;-1.586;2022-07-29T01:13:27;21.50;56.10
61374;DHT22;47242;48.158;-1.586;2022-07-29T01:16:07;21.30;56.20
61374;DHT22;47242;48.158;-1.586;2022-07-29T01:18:42;21.40;56.30
61374;DHT22;47242;48.158;-1.586;2022-07-29T01:26:54;21.50;55.40
61374;DHT22;47242;48.158;-1.586;2022-07-29T01:32:33;21.40;55.30
61374;DHT22;47242;48.158;-1.586;2022-07-29T01:37:46;21.40;55.20
61374;DHT22;47242;48.158;-1.586;2022-07-29T01:40:22;21.30;55.10
61374;DHT22;47242;48.158;-1.586;2022-07-29T01:42:52;21.30;55.00
61374;DHT22;47242;48.158;-1.586;2022-07-29T01:45:39;21.30;54.90
61374;DHT22;47242;48.158;-1.586;2022-07-29T01:48:16;21.30;55.10
61374;DHT22;47242;48.158;-1.586;2022-07-29T01:50:50;21.30;55.00
61374;DHT22;47242;48.158;-1.586;2022-07-29T01:53:25;21.30;54.90
61374;DHT22;47242;48.158;-1.586;2022-07-29T01:55:52;21.30;54.70
61374;DHT22;47242;48.158;-1.586;2022-07-29T01:58:32;21.30;54.50
61374;DHT22;47242;48.158;-1.586;2022-07-29T02:00:59;21.30;54.50
61374;DHT22;47242;48.158;-1.586;2022-07-29T02:03:26;21.30;54.50
61374;DHT22;47242;48.158;-1.586;2022-07-29T02:05:53;21.30;54.30
61374;DHT22;47242;48.158;-1.586;2022-07-29T02:08:21;21.30;54.20
61374;DHT22;47242;48.158;-1.586;2022-07-29T02:10:48;21.30;54.10
61374;DHT22;47242;48.158;-1.586;2022-07-29T02:13:16;21.20;54.30
61374;DHT22;47242;48.158;-1.586;2022-07-29T02:15:47;21.30;54.20
61374;DHT22;47242;48.158;-1.586;2022-07-29T02:18:20;21.30;54.10
61374;DHT22;47242;48.158;-1.586;2022-07-29T02:20:50;21.30;53.80
61374;DHT22;47242;48.158;-1.586;2022-07-29T02:23:19;21.30;53.80
61374;DHT22;47242;48.158;-1.586;2022-07-29T02:25:49;21.30;53.70
61374;DHT22;47242;48.158;-1.586;2022-07-29T02:28:17;21.30;53.60
61374;DHT22;47242;48.158;-1.586;2022-07-29T02:30:44;21.30;53.50
61374;DHT22;47242;48.158;-1.586;2022-07-29T02:33:14;21.30;53.50
61374;DHT22;47242;48.158;-1.586;2022-07-29T02:35:41;21.30;53.40
61374;DHT22;47242;48.158;-1.586;2022-07-29T02:38:10;21.30;53.40
61374;DHT22;47242;48.158;-1.586;2022-07-29T02:40:57;21.30;53.50
61374;DHT22;47242;48.158;-1.586;2022-07-29T02:43:24;21.30;53.70
61374;DHT22;47242;48.158;-1.586;2022-07-29T02:45:53;21.30;53.50
61374;DHT22;47242;48.158;-1.586;2022-07-29T02:48:24;21.30;53.50
61374;DHT22;47242;48.158;-1.586;2022-07-29T02:51:01;21.30;53.60
61374;DHT22;47242;48.158;-1.586;2022-07-29T02:53:30;21.30;53.50
61374;DHT22;47242;48.158;-1.586;2022-07-29T02:58:40;21.30;53.30
61374;DHT22;47242;48.158;-1.586;2022-07-29T03:01:22;21.30;53.40
61374;DHT22;47242;48.158;-1.586;2022-07-29T03:03:50;21.20;53.50
61374;DHT22;47242;48.158;-1.586;2022-07-29T03:06:19;21.20;53.90
61374;DHT22;47242;48.158;-1.586;2022-07-29T03:08:46;21.20;53.90
61374;DHT22;47242;48.158;-1.586;2022-07-29T03:11:12;21.20;54.10
61374;DHT22;47242;48.158;-1.586;2022-07-29T03:13:39;21.20;54.10
61374;DHT22;47242;48.158;-1.586;2022-07-29T03:16:05;21.10;54.30
61374;DHT22;47242;48.158;-1.586;2022-07-29T03:18:31;21.10;54.30
61374;DHT22;47242;48.158;-1.586;2022-07-29T03:21:00;21.10;54.30
61374;DHT22;47242;48.158;-1.586;2022-07-29T03:23:26;21.10;54.20
61374;DHT22;47242;48.158;-1.586;2022-07-29T03:25:53;21.10;54.40
61374;DHT22;47242;48.158;-1.586;2022-07-29T03:28:19;21.10;54.50
61374;DHT22;47242;48.158;-1.586;2022-07-29T03:30:45;21.00;54.30
61374;DHT22;47242;48.158;-1.586;2022-07-29T03:33:11;21.00;54.50
61374;DHT22;47242;48.158;-1.586;2022-07-29T03:35:40;21.00;54.70
61374;DHT22;47242;48.158;-1.586;2022-07-29T03:38:06;21.00;54.60
61374;DHT22;47242;48.158;-1.586;2022-07-29T03:40:37;21.00;54.60
61374;DHT22;47242;48.158;-1.586;2022-07-29T03:43:05;20.90;54.70
61374;DHT22;47242;48.158;-1.586;2022-07-29T03:45:33;20.90;54.80
61374;DHT22;47242;48.158;-1.586;2022-07-29T03:48:05;20.90;55.00
61374;DHT22;47242;48.158;-1.586;2022-07-29T03:50:33;20.90;54.90
61374;DHT22;47242;48.158;-1.586;2022-07-29T03:53:00;20.90;54.80
61374;DHT22;47242;48.158;-1.586;2022-07-29T03:55:26;20.90;54.90
61374;DHT22;47242;48.158;-1.586;2022-07-29T03:58:03;20.90;54.90
61374;DHT22;47242;48.158;-1.586;2022-07-29T04:00:30;21.00;54.60
61374;DHT22;47242;48.158;-1.586;2022-07-29T04:02:56;20.90;54.80
61374;DHT22;47242;48.158;-1.586;2022-07-29T04:05:22;20.90;54.80
61374;DHT22;47242;48.158;-1.586;2022-07-29T04:07:48;20.90;54.60
61374;DHT22;47242;48.158;-1.586;2022-07-29T04:10:15;20.90;54.60
61374;DHT22;47242;48.158;-1.586;2022-07-29T04:12:41;20.90;54.70
61374;DHT22;47242;48.158;-1.586;2022-07-29T04:15:15;20.90;54.70
61374;DHT22;47242;48.158;-1.586;2022-07-29T04:17:41;20.80;54.70
61374;DHT22;47242;48.158;-1.586;2022-07-29T04:20:07;20.80;54.60
61374;DHT22;47242;48.158;-1.586;2022-07-29T04:22:33;20.80;54.70
61374;DHT22;47242;48.158;-1.586;2022-07-29T04:24:58;20.80;54.90
61374;DHT22;47242;48.158;-1.586;2022-07-29T04:27:25;20.80;54.60
61374;DHT22;47242;48.158;-1.586;2022-07-29T04:29:51;20.80;54.60
61374;DHT22;47242;48.158;-1.586;2022-07-29T04:32:19;20.80;54.90
61374;DHT22;47242;48.158;-1.586;2022-07-29T04:34:45;20.80;54.60
61374;DHT22;47242;48.158;-1.586;2022-07-29T04:37:12;20.70;55.00
61374;DHT22;47242;48.158;-1.586;2022-07-29T04:39:38;20.70;55.20
61374;DHT22;47242;48.158;-1.586;2022-07-29T04:42:03;20.70;55.20
61374;DHT22;47242;48.158;-1.586;2022-07-29T04:44:29;20.70;55.30
61374;DHT22;47242;48.158;-1.586;2022-07-29T04:46:55;20.70;55.40
61374;DHT22;47242;48.158;-1.586;2022-07-29T04:49:39;20.70;55.20
61374;DHT22;47242;48.158;-1.586;2022-07-29T04:52:05;20.70;55.40
61374;DHT22;47242;48.158;-1.586;2022-07-29T04:54:31;20.80;55.60
61374;DHT22;47242;48.158;-1.586;2022-07-29T04:56:56;20.80;55.30
61374;DHT22;47242;48.158;-1.586;2022-07-29T04:59:22;20.70;55.40
61374;DHT22;47242;48.158;-1.586;2022-07-29T05:01:48;20.80;55.30
61374;DHT22;47242;48.158;-1.586;2022-07-29T05:04:13;20.80;55.30
61374;DHT22;47242;48.158;-1.586;2022-07-29T05:06:39;20.80;55.30
61374;DHT22;47242;48.158;-1.586;2022-07-29T05:09:05;20.80;54.90
61374;DHT22;47242;48.158;-1.586;2022-07-29T05:11:31;20.80;55.40
61374;DHT22;47242;48.158;-1.586;2022-07-29T05:13:56;20.80;55.20
61374;DHT22;47242;48.158;-1.586;2022-07-29T05:16:22;20.80;55.10
61374;DHT22;47242;48.158;-1.586;2022-07-29T05:18:48;20.70;55.30
61374;DHT22;47242;48.158;-1.586;2022-07-29T05:21:13;20.80;55.40
61374;DHT22;47242;48.158;-1.586;2022-07-29T05:23:39;20.80;55.30
61374;DHT22;47242;48.158;-1.586;2022-07-29T05:26:04;20.70;55.50
61374;DHT22;47242;48.158;-1.586;2022-07-29T05:28:34;20.80;55.30
61374;DHT22;47242;48.158;-1.586;2022-07-29T05:31:00;20.80;55.30
61374;DHT22;47242;48.158;-1.586;2022-07-29T05:33:26;20.80;55.20
61374;DHT22;47242;48.158;-1.586;2022-07-29T05:35:51;20.90;55.30
61374;DHT22;47242;48.158;-1.586;2022-07-29T05:38:17;21.00;54.70
61374;DHT22;47242;48.158;-1.586;2022-07-29T05:40:42;21.00;54.80
61374;DHT22;47242;48.158;-1.586;2022-07-29T05:43:08;21.00;54.80
61374;DHT22;47242;48.158;-1.586;2022-07-29T05:45:34;21.20;54.70
61374;DHT22;47242;48.158;-1.586;2022-07-29T05:47:59;21.20;54.70
61374;DHT22;47242;48.158;-1.586;2022-07-29T05:50:25;21.30;54.20
61374;DHT22;47242;48.158;-1.586;2022-07-29T05:52:50;21.40;54.00
61374;DHT22;47242;48.158;-1.586;2022-07-29T05:55:17;21.60;53.60
61374;DHT22;47242;48.158;-1.586;2022-07-29T05:57:42;21.60;53.30
61374;DHT22;47242;48.158;-1.586;2022-07-29T06:00:10;21.70;53.10
61374;DHT22;47242;48.158;-1.586;2022-07-29T06:02:36;21.70;53.30
61374;DHT22;47242;48.158;-1.586;2022-07-29T06:05:02;21.70;53.40
61374;DHT22;47242;48.158;-1.586;2022-07-29T06:07:27;21.80;53.30
61374;DHT22;47242;48.158;-1.586;2022-07-29T06:09:53;21.70;53.50
61374;DHT22;47242;48.158;-1.586;2022-07-29T06:12:19;21.70;53.80
61374;DHT22;47242;48.158;-1.586;2022-07-29T06:14:45;21.80;53.40
61374;DHT22;47242;48.158;-1.586;2022-07-29T06:17:10;21.80;53.30
61374;DHT22;47242;48.158;-1.586;2022-07-29T06:19:37;21.80;53.60
61374;DHT22;47242;48.158;-1.586;2022-07-29T06:22:03;21.90;53.60
61374;DHT22;47242;48.158;-1.586;2022-07-29T06:24:29;21.90;53.70
61374;DHT22;47242;48.158;-1.586;2022-07-29T06:26:55;22.00;53.20
61374;DHT22;47242;48.158;-1.586;2022-07-29T06:29:21;22.10;53.20
61374;DHT22;47242;48.158;-1.586;2022-07-29T06:31:46;22.10;52.90
61374;DHT22;47242;48.158;-1.586;2022-07-29T06:34:12;22.10;53.30
61374;DHT22;47242;48.158;-1.586;2022-07-29T06:36:38;22.20;53.20
61374;DHT22;47242;48.158;-1.586;2022-07-29T06:39:05;22.30;53.10
61374;DHT22;47242;48.158;-1.586;2022-07-29T06:41:31;22.30;53.00
61374;DHT22;47242;48.158;-1.586;2022-07-29T06:43:57;22.40;53.00
61374;DHT22;47242;48.158;-1.586;2022-07-29T06:46:22;22.50;52.80
61374;DHT22;47242;48.158;-1.586;2022-07-29T06:48:48;22.60;53.20
61374;DHT22;47242;48.158;-1.586;2022-07-29T06:51:14;22.70;52.70
61374;DHT22;47242;48.158;-1.586;2022-07-29T06:53:40;22.80;52.40
61374;DHT22;47242;48.158;-1.586;2022-07-29T06:56:06;23.00;51.90
61374;DHT22;47242;48.158;-1.586;2022-07-29T06:58:34;23.00;52.00
61374;DHT22;47242;48.158;-1.586;2022-07-29T07:01:02;23.10;51.50
61374;DHT22;47242;48.158;-1.586;2022-07-29T07:03:28;23.20;51.20
61374;DHT22;47242;48.158;-1.586;2022-07-29T07:05:54;23.30;50.90
61374;DHT22;47242;48.158;-1.586;2022-07-29T07:08:21;23.30;51.10
61374;DHT22;47242;48.158;-1.586;2022-07-29T07:10:47;23.40;50.40
61374;DHT22;47242;48.158;-1.586;2022-07-29T07:13:13;23.50;50.10
61374;DHT22;47242;48.158;-1.586;2022-07-29T07:15:40;23.70;48.70
61374;DHT22;47242;48.158;-1.586;2022-07-29T07:18:06;23.90;48.90
61374;DHT22;47242;48.158;-1.586;2022-07-29T07:20:33;24.20;47.20
61374;DHT22;47242;48.158;-1.586;2022-07-29T07:22:59;24.60;46.60
61374;DHT22;47242;48.158;-1.586;2022-07-29T07:25:24;24.90;45.10
61374;DHT22;47242;48.158;-1.586;2022-07-29T07:27:50;25.30;44.80
61374;DHT22;47242;48.158;-1.586;2022-07-29T07:30:16;26.10;41.60
61374;DHT22;47242;48.158;-1.586;2022-07-29T07:32:42;27.10;39.90
61374;DHT22;47242;48.158;-1.586;2022-07-29T07:35:09;27.10;39.40
61374;DHT22;47242;48.158;-1.586;2022-07-29T07:37:35;26.70;39.30
61374;DHT22;47242;48.158;-1.586;2022-07-29T07:40:01;26.80;40.10
61374;DHT22;47242;48.158;-1.586;2022-07-29T07:42:27;26.80;39.60
61374;DHT22;47242;48.158;-1.586;2022-07-29T07:44:53;26.80;39.70
61374;DHT22;47242;48.158;-1.586;2022-07-29T07:47:19;26.80;40.10
61374;DHT22;47242;48.158;-1.586;2022-07-29T07:49:52;26.80;40.60
61374;DHT22;47242;48.158;-1.586;2022-07-29T07:52:20;26.60;41.00
61374;DHT22;47242;48.158;-1.586;2022-07-29T07:54:46;26.30;41.50
61374;DHT22;47242;48.158;-1.586;2022-07-29T07:57:12;26.30;41.90
61374;DHT22;47242;48.158;-1.586;2022-07-29T07:59:38;26.10;41.70
61374;DHT22;47242;48.158;-1.586;2022-07-29T08:02:04;26.20;42.50
61374;DHT22;47242;48.158;-1.586;2022-07-29T08:04:30;26.30;42.20
61374;DHT22;47242;48.158;-1.586;2022-07-29T08:06:57;26.40;41.10
61374;DHT22;47242;48.158;-1.586;2022-07-29T08:09:24;27.40;40.40
61374;DHT22;47242;48.158;-1.586;2022-07-29T08:11:50;28.80;37.20
61374;DHT22;47242;48.158;-1.586;2022-07-29T08:14:16;30.30;35.10
61374;DHT22;47242;48.158;-1.586;2022-07-29T08:16:42;30.50;34.90
61374;DHT22;47242;48.158;-1.586;2022-07-29T08:19:08;30.50;35.10
61374;DHT22;47242;48.158;-1.586;2022-07-29T08:21:34;30.00;35.80
61374;DHT22;47242;48.158;-1.586;2022-07-29T08:24:00;29.70;36.70
61374;DHT22;47242;48.158;-1.586;2022-07-29T08:26:45;29.50;36.70
61374;DHT22;47242;48.158;-1.586;2022-07-29T08:29:10;28.80;38.00
61374;DHT22;47242;48.158;-1.586;2022-07-29T08:31:37;28.40;38.60
61374;DHT22;47242;48.158;-1.586;2022-07-29T08:34:03;28.00;39.20
61374;DHT22;47242;48.158;-1.586;2022-07-29T08:36:29;27.60;39.60
61374;DHT22;47242;48.158;-1.586;2022-07-29T08:38:55;27.30;40.80
61374;DHT22;47242;48.158;-1.586;2022-07-29T08:41:22;27.20;41.50
61374;DHT22;47242;48.158;-1.586;2022-07-29T08:43:48;27.10;42.00
61374;DHT22;47242;48.158;-1.586;2022-07-29T08:46:15;27.00;42.70
61374;DHT22;47242;48.158;-1.586;2022-07-29T08:48:41;26.90;42.50
61374;DHT22;47242;48.158;-1.586;2022-07-29T08:51:07;26.80;42.30
61374;DHT22;47242;48.158;-1.586;2022-07-29T08:53:33;26.70;42.70
61374;DHT22;47242;48.158;-1.586;2022-07-29T08:55:59;26.80;42.80
61374;DHT22;47242;48.158;-1.586;2022-07-29T08:58:27;26.70;42.60
61374;DHT22;47242;48.158;-1.586;2022-07-29T09:00:56;26.60;42.80
61374;DHT22;47242;48.158;-1.586;2022-07-29T09:03:30;26.60;43.30
61374;DHT22;47242;48.158;-1.586;2022-07-29T09:05:56;26.70;43.50
61374;DHT22;47242;48.158;-1.586;2022-07-29T09:08:22;26.80;43.40
61374;DHT22;47242;48.158;-1.586;2022-07-29T09:10:48;26.80;42.90
61374;DHT22;47242;48.158;-1.586;2022-07-29T09:13:14;26.90;43.50
61374;DHT22;47242;48.158;-1.586;2022-07-29T09:15:40;27.10;42.50
61374;DHT22;47242;48.158;-1.586;2022-07-29T09:18:05;27.20;42.30
61374;DHT22;47242;48.158;-1.586;2022-07-29T09:20:31;27.20;41.90
61374;DHT22;47242;48.158;-1.586;2022-07-29T09:23:15;27.20;41.70
61374;DHT22;47242;48.158;-1.586;2022-07-29T09:25:41;27.30;41.60
61374;DHT22;47242;48.158;-1.586;2022-07-29T09:28:12;27.50;41.60
61374;DHT22;47242;48.158;-1.586;2022-07-29T09:33:16;27.80;41.00
61374;DHT22;47242;48.158;-1.586;2022-07-29T09:35:42;28.30;39.80
61374;DHT22;47242;48.158;-1.586;2022-07-29T09:38:14;28.80;39.20
61374;DHT22;47242;48.158;-1.586;2022-07-29T09:40:40;29.40;38.60
61374;DHT22;47242;48.158;-1.586;2022-07-29T09:43:10;29.60;38.20
61374;DHT22;47242;48.158;-1.586;2022-07-29T09:45:36;29.60;38.40
61374;DHT22;47242;48.158;-1.586;2022-07-29T09:48:22;29.80;38.10
61374;DHT22;47242;48.158;-1.586;2022-07-29T09:50:48;29.60;37.90
61374;DHT22;47242;48.158;-1.586;2022-07-29T09:53:38;29.40;38.00
61374;DHT22;47242;48.158;-1.586;2022-07-29T09:56:05;29.40;37.10
61374;DHT22;47242;48.158;-1.586;2022-07-29T09:58:31;29.80;37.50
61374;DHT22;47242;48.158;-1.586;2022-07-29T10:00:59;30.90;36.20
61374;DHT22;47242;48.158;-1.586;2022-07-29T10:03:25;31.40;35.00
61374;DHT22;47242;48.158;-1.586;2022-07-29T10:06:11;31.80;34.80
61374;DHT22;47242;48.158;-1.586;2022-07-29T10:08:38;31.70;34.00
61374;DHT22;47242;48.158;-1.586;2022-07-29T10:11:14;31.30;35.00
61374;DHT22;47242;48.158;-1.586;2022-07-29T10:13:41;31.10;35.00
61374;DHT22;47242;48.158;-1.586;2022-07-29T10:16:08;31.20;35.30
61374;DHT22;47242;48.158;-1.586;2022-07-29T10:18:34;31.30;34.70
61374;DHT22;47242;48.158;-1.586;2022-07-29T10:21:00;31.30;34.70
61374;DHT22;47242;48.158;-1.586;2022-07-29T10:23:28;31.50;34.50
61374;DHT22;47242;48.158;-1.586;2022-07-29T10:25:54;31.90;33.50
61374;DHT22;47242;48.158;-1.586;2022-07-29T10:28:19;32.40;32.90
61374;DHT22;47242;48.158;-1.586;2022-07-29T10:30:46;32.40;33.10
61374;DHT22;47242;48.158;-1.586;2022-07-29T10:39:15;32.30;33.90
61374;DHT22;47242;48.158;-1.586;2022-07-29T10:41:59;32.30;33.60
61374;DHT22;47242;48.158;-1.586;2022-07-29T10:44:27;32.10;33.50
61374;DHT22;47242;48.158;-1.586;2022-07-29T10:46:54;31.90;33.50
61374;DHT22;47242;48.158;-1.586;2022-07-29T10:49:24;31.80;33.70
61374;DHT22;47242;48.158;-1.586;2022-07-29T10:51:55;31.70;33.70
61374;DHT22;47242;48.158;-1.586;2022-07-29T10:54:43;31.60;34.30
61374;DHT22;47242;48.158;-1.586;2022-07-29T11:05:13;31.50;33.50
61374;DHT22;47242;48.158;-1.586;2022-07-29T11:10:25;31.40;34.50
61374;DHT22;47242;48.158;-1.586;2022-07-29T11:12:51;31.60;34.40
61374;DHT22;47242;48.158;-1.586;2022-07-29T11:15:21;31.50;34.00
61374;DHT22;47242;48.158;-1.586;2022-07-29T11:20:42;31.60;34.40
61374;DHT22;47242;48.158;-1.586;2022-07-29T11:23:21;31.80;34.20
61374;DHT22;47242;48.158;-1.586;2022-07-29T11:31:47;31.80;34.00
61374;DHT22;47242;48.158;-1.586;2022-07-29T11:34:26;31.90;33.60
61374;DHT22;47242;48.158;-1.586;2022-07-29T11:39:47;32.00;33.60
61374;DHT22;47242;48.158;-1.586;2022-07-29T11:44:59;32.20;33.80
61374;DHT22;47242;48.158;-1.586;2022-07-29T11:47:32;32.30;33.10
61374;DHT22;47242;48.158;-1.586;2022-07-29T11:49:59;32.30;32.50
61374;DHT22;47242;48.158;-1.586;2022-07-29T11:52:36;32.10;32.60
61374;DHT22;47242;48.158;-1.586;2022-07-29T11:55:04;31.90;32.40
61374;DHT22;47242;48.158;-1.586;2022-07-29T11:57:31;32.00;33.40
61374;DHT22;47242;48.158;-1.586;2022-07-29T11:59:58;32.20;33.90
61374;DHT22;47242;48.158;-1.586;2022-07-29T12:02:24;32.40;33.50
61374;DHT22;47242;48.158;-1.586;2022-07-29T12:04:54;32.50;32.60
61374;DHT22;47242;48.158;-1.586;2022-07-29T12:07:33;32.70;33.50
61374;DHT22;47242;48.158;-1.586;2022-07-29T12:09:59;32.80;32.60
61374;DHT22;47242;48.158;-1.586;2022-07-29T12:12:25;32.90;32.60
61374;DHT22;47242;48.158;-1.586;2022-07-29T12:14:51;33.00;31.90
61374;DHT22;47242;48.158;-1.586;2022-07-29T12:17:31;33.00;32.00
61374;DHT22;47242;48.158;-1.586;2022-07-29T12:20:10;33.00;32.00
61374;DHT22;47242;48.158;-1.586;2022-07-29T12:22:40;33.10;32.60
61374;DHT22;47242;48.158;-1.586;2022-07-29T12:25:10;32.80;32.50
61374;DHT22;47242;48.158;-1.586;2022-07-29T12:27:37;32.90;32.90
61374;DHT22;47242;48.158;-1.586;2022-07-29T12:30:09;33.00;33.40
61374;DHT22;47242;48.158;-1.586;2022-07-29T12:32:36;33.00;33.20
61374;DHT22;47242;48.158;-1.586;2022-07-29T12:35:07;32.90;32.90
61374;DHT22;47242;48.158;-1.586;2022-07-29T12:37:36;33.00;33.00
61374;DHT22;47242;48.158;-1.586;2022-07-29T12:40:04;33.00;33.10
61374;DHT22;47242;48.158;-1.586;2022-07-29T12:42:30;32.90;32.90
61374;DHT22;47242;48.158;-1.586;2022-07-29T12:44:56;33.00;33.30
61374;DHT22;47242;48.158;-1.586;2022-07-29T12:47:22;33.10;32.90
61374;DHT22;47242;48.158;-1.586;2022-07-29T12:49:48;33.20;32.50
61374;DHT22;47242;48.158;-1.586;2022-07-29T12:52:32;33.30;32.20
61374;DHT22;47242;48.158;-1.586;2022-07-29T12:54:58;33.30;32.20
61374;DHT22;47242;48.158;-1.586;2022-07-29T12:57:24;33.30;32.10
61374;DHT22;47242;48.158;-1.586;2022-07-29T13:00:08;33.20;33.30
61374;DHT22;47242;48.158;-1.586;2022-07-29T13:02:36;33.00;33.20
61374;DHT22;47242;48.158;-1.586;2022-07-29T13:05:03;32.80;33.20
61374;DHT22;47242;48.158;-1.586;2022-07-29T13:07:31;32.50;33.50
61374;DHT22;47242;48.158;-1.586;2022-07-29T13:10:11;32.30;33.80
61374;DHT22;47242;48.158;-1.586;2022-07-29T13:12:36;32.00;33.80
61374;DHT22;47242;48.158;-1.586;2022-07-29T13:15:13;31.90;34.50
61374;DHT22;47242;48.158;-1.586;2022-07-29T13:17:42;31.80;35.00
61374;DHT22;47242;48.158;-1.586;2022-07-29T13:20:12;31.70;35.00
61374;DHT22;47242;48.158;-1.586;2022-07-29T13:22:39;31.50;35.50
61374;DHT22;47242;48.158;-1.586;2022-07-29T13:25:05;31.30;35.80
61374;DHT22;47242;48.158;-1.586;2022-07-29T13:27:36;31.30;35.50
61374;DHT22;47242;48.158;-1.586;2022-07-29T13:30:07;31.30;36.10
61374;DHT22;47242;48.158;-1.586;2022-07-29T13:32:34;31.30;35.70
61374;DHT22;47242;48.158;-1.586;2022-07-29T13:35:03;31.40;35.50
61374;DHT22;47242;48.158;-1.586;2022-07-29T13:37:29;31.50;34.80
61374;DHT22;47242;48.158;-1.586;2022-07-29T13:39:58;31.60;35.10
61374;DHT22;47242;48.158;-1.586;2022-07-29T13:42:26;31.50;34.70
61374;DHT22;47242;48.158;-1.586;2022-07-29T13:44:52;31.40;35.40
61374;DHT22;47242;48.158;-1.586;2022-07-29T13:47:19;31.30;35.10
61374;DHT22;47242;48.158;-1.586;2022-07-29T13:49:45;31.50;35.20
61374;DHT22;47242;48.158;-1.586;2022-07-29T13:52:10;31.70;35.00
61374;DHT22;47242;48.158;-1.586;2022-07-29T13:54:36;31.70;34.30
61374;DHT22;47242;48.158;-1.586;2022-07-29T13:57:04;31.60;34.00
61374;DHT22;47242;48.158;-1.586;2022-07-29T13:59:30;31.60;34.10
61374;DHT22;47242;48.158;-1.586;2022-07-29T14:01:56;31.40;33.70
61374;DHT22;47242;48.158;-1.586;2022-07-29T14:04:22;31.40;34.00
61374;DHT22;47242;48.158;-1.586;2022-07-29T14:06:49;31.40;33.80
61374;DHT22;47242;48.158;-1.586;2022-07-29T14:09:15;31.50;34.10
61374;DHT22;47242;48.158;-1.586;2022-07-29T14:11:41;31.70;33.90
61374;DHT22;47242;48.158;-1.586;2022-07-29T14:14:06;31.90;34.00
61374;DHT22;47242;48.158;-1.586;2022-07-29T14:16:32;32.30;33.70
61374;DHT22;47242;48.158;-1.586;2022-07-29T14:18:58;32.60;32.90
61374;DHT22;47242;48.158;-1.586;2022-07-29T14:21:24;32.40;31.50
61374;DHT22;47242;48.158;-1.586;2022-07-29T14:23:49;32.10;32.20
61374;DHT22;47242;48.158;-1.586;2022-07-29T14:26:15;32.00;32.20
61374;DHT22;47242;48.158;-1.586;2022-07-29T14:32:07;32.30;32.70
61374;DHT22;47242;48.158;-1.586;2022-07-29T14:34:34;32.40;32.70
61374;DHT22;47242;48.158;-1.586;2022-07-29T14:36:59;32.40;32.70
61374;DHT22;47242;48.158;-1.586;2022-07-29T14:39:25;32.20;31.80
61374;DHT22;47242;48.158;-1.586;2022-07-29T14:41:51;32.10;32.80
61374;DHT22;47242;48.158;-1.586;2022-07-29T14:44:17;31.70;32.30
61374;DHT22;47242;48.158;-1.586;2022-07-29T14:46:43;31.40;32.80
61374;DHT22;47242;48.158;-1.586;2022-07-29T14:49:09;31.40;33.00
61374;DHT22;47242;48.158;-1.586;2022-07-29T14:51:35;31.20;33.30
61374;DHT22;47242;48.158;-1.586;2022-07-29T14:54:01;31.10;34.10
61374;DHT22;47242;48.158;-1.586;2022-07-29T14:56:26;31.00;34.10
61374;DHT22;47242;48.158;-1.586;2022-07-29T14:58:55;31.00;34.20
61374;DHT22;47242;48.158;-1.586;2022-07-29T15:01:21;31.10;34.20
61374;DHT22;47242;48.158;-1.586;2022-07-29T15:03:47;31.00;34.20
61374;DHT22;47242;48.158;-1.586;2022-07-29T15:06:12;31.00;34.40
61374;DHT22;47242;48.158;-1.586;2022-07-29T15:08:38;30.90;34.50
61374;DHT22;47242;48.158;-1.586;2022-07-29T15:11:04;31.00;35.10
61374;DHT22;47242;48.158;-1.586;2022-07-29T15:13:29;31.00;35.00
61374;DHT22;47242;48.158;-1.586;2022-07-29T15:15:55;31.00;34.90
61374;DHT22;47242;48.158;-1.586;2022-07-29T15:18:20;31.00;34.80
61374;DHT22;47242;48.158;-1.586;2022-07-29T15:20:46;31.10;35.20
61374;DHT22;47242;48.158;-1.586;2022-07-29T15:23:12;31.20;35.00
61374;DHT22;47242;48.158;-1.586;2022-07-29T15:25:38;31.10;34.80
61374;DHT22;47242;48.158;-1.586;2022-07-29T15:28:04;31.10;34.90
61374;DHT22;47242;48.158;-1.586;2022-07-29T15:30:33;31.10;35.20
61374;DHT22;47242;48.158;-1.586;2022-07-29T15:32:59;31.00;34.80
61374;DHT22;47242;48.158;-1.586;2022-07-29T15:35:25;30.90;35.20
61374;DHT22;47242;48.158;-1.586;2022-07-29T15:37:51;30.90;35.90
61374;DHT22;47242;48.158;-1.586;2022-07-29T15:40:16;30.80;35.50
61374;DHT22;47242;48.158;-1.586;2022-07-29T15:42:42;30.80;36.10
61374;DHT22;47242;48.158;-1.586;2022-07-29T15:45:08;30.80;36.50
61374;DHT22;47242;48.158;-1.586;2022-07-29T15:47:37;30.80;35.40
61374;DHT22;47242;48.158;-1.586;2022-07-29T15:50:03;30.80;35.50
61374;DHT22;47242;48.158;-1.586;2022-07-29T15:52:28;30.70;35.30
61374;DHT22;47242;48.158;-1.586;2022-07-29T15:54:55;30.70;35.30
61374;DHT22;47242;48.158;-1.586;2022-07-29T15:57:21;30.70;35.80
61374;DHT22;47242;48.158;-1.586;2022-07-29T15:59:47;30.70;35.00
61374;DHT22;47242;48.158;-1.586;2022-07-29T16:02:12;30.80;36.00
61374;DHT22;47242;48.158;-1.586;2022-07-29T16:04:38;30.80;35.40
61374;DHT22;47242;48.158;-1.586;2022-07-29T16:07:04;31.10;35.00
61374;DHT22;47242;48.158;-1.586;2022-07-29T16:09:30;31.10;34.90